Aviation Digital Data Service (ADDS)

Output produced by METARs form (1907 UTC 18 June 2019)
found at http://www.aviationweather.gov/metar/data/
 
EPZG 181900Z 09006KT CAVOK 25/13 Q1015
TAF EPZG 181730Z 1818/1903 09007KT CAVOK
       
EPKK 181900Z 07006KT CAVOK 21/16 Q1017
TAF EPKK 181730Z 1818/1918 07010KT CAVOK 
     BECMG 1822/1901 VRB02KT 
     PROB30 
     TEMPO 1901/1904 2000 BR 
     TEMPO 1910/1913 SCT040CB 
     TEMPO 1913/1918 VRB15G30KT 4000 TSRA BKN023CB
       
TAF EPDE 181700Z 1818/1903 10008KT CAVOK
       
EPSC 181900Z 08005KT CAVOK 22/15 Q1015
TAF EPSC 181730Z 1818/1918 14008KT CAVOK 
       
EPRZ 181900Z 08005KT CAVOK 21/17 Q1017
TAF EPRZ 181730Z 1818/1918 09010KT CAVOK 
     BECMG 1822/1901 15004KT 
     PROB30 
     TEMPO 1822/1907 SHRA BKN040CB 
     TEMPO 1910/1913 SCT040CB 
     TEMPO 1913/1918 VRB15G30KT 4000 TSRA BKN023CB
       
TAF EPKS 181700Z 1818/1903 10006KT CAVOK
       
EPPO 181900Z 12008KT CAVOK 24/13 Q1016
TAF EPPO 181730Z 1818/1918 11008KT CAVOK 
     TEMPO 1910/1918 SCT040CB 
     PROB40 
     TEMPO 1913/1918 VRB17G33KT 4000 TSRA BKN014CB
       
EPLL 181900Z 10004KT 070V130 CAVOK 22/13 Q1017
TAF EPLL 181730Z 1818/1918 10005KT CAVOK 
     TEMPO 1912/1918 VRB15G30KT 3000 TSRA SCT012 BKN030CB
       
EPWA 181900Z 05006KT 010V090 CAVOK 24/13 Q1017 NOSIG
TAF EPWA 181730Z 1818/1918 09005KT CAVOK 
     TEMPO 1912/1918 3000 TSRA SCT012 BKN030CB
       
EPKT 181900Z 10007KT CAVOK 20/14 Q1017
TAF EPKT 181730Z 1818/1918 09010KT CAVOK 
     BECMG 1823/1902 VRB02KT 
     BECMG 1910/1912 18010KT 
     TEMPO 1910/1913 SCT040CB 
     TEMPO 1913/1918 VRB15G30KT 4000 TSRA BKN023CB
       
EPGD 181900Z 13007KT CAVOK 20/14 Q1018
TAF EPGD 181730Z 1818/1918 13007KT CAVOK 
     TEMPO 1913/1918 SCT035TCU 
       
EPWR 181900Z 14003KT 100V160 CAVOK 23/13 Q1016
TAF EPWR 181730Z 1818/1918 14006KT CAVOK 
     TEMPO 1911/1918 SCT040CB 
     PROB40 
     TEMPO 1913/1918 VRB17G33KT 4000 TSRA BKN014CB
       
TAF EPSN 181700Z 1818/1903 15008KT CAVOK
       
EPBY 181900Z 12004KT CAVOK 23/11 Q1017
TAF EPBY 181730Z 1818/1918 10010KT CAVOK 
     TEMPO 1913/1918 SHRA BKN035CB 
     PROB40 
     TEMPO 1913/1918 VRB15G25KT TSRA 
       
EPSY 181900Z 04003KT CAVOK 21/12 Q1018
TAF EPSY 181730Z 1818/1903 05004KT CAVOK